sensor_id;sensor_type;location;lat;lon;timestamp;P1;durP1;ratioP1;P2;durP2;ratioP2
6475;SDS011;3271;51.910;5.840;2022-08-11T00:00:21;2.35;;;2.08;;
6475;SDS011;3271;51.910;5.840;2022-08-11T00:02:57;2.58;;;2.20;;
6475;SDS011;3271;51.910;5.840;2022-08-11T00:05:28;2.92;;;2.08;;
6475;SDS011;3271;51.910;5.840;2022-08-11T00:07:55;4.18;;;2.05;;
6475;SDS011;3271;51.910;5.840;2022-08-11T00:10:25;3.63;;;1.90;;
6475;SDS011;3271;51.910;5.840;2022-08-11T00:12:55;2.53;;;1.90;;
6475;SDS011;3271;51.910;5.840;2022-08-11T00:15:22;3.25;;;2.05;;
6475;SDS011;3271;51.910;5.840;2022-08-11T00:17:49;2.53;;;2.25;;
6475;SDS011;3271;51.910;5.840;2022-08-11T00:20:21;5.38;;;2.00;;
6475;SDS011;3271;51.910;5.840;2022-08-11T00:22:48;5.80;;;1.92;;
6475;SDS011;3271;51.910;5.840;2022-08-11T00:25:18;2.38;;;2.00;;
6475;SDS011;3271;51.910;5.840;2022-08-11T00:27:44;1.90;;;1.80;;
6475;SDS011;3271;51.910;5.840;2022-08-11T00:30:11;3.15;;;2.00;;
6475;SDS011;3271;51.910;5.840;2022-08-11T00:32:37;2.45;;;1.90;;
6475;SDS011;3271;51.910;5.840;2022-08-11T00:35:04;2.25;;;2.05;;
6475;SDS011;3271;51.910;5.840;2022-08-11T00:37:32;2.95;;;2.20;;
6475;SDS011;3271;51.910;5.840;2022-08-11T00:39:58;3.90;;;2.20;;
6475;SDS011;3271;51.910;5.840;2022-08-11T00:42:45;3.75;;;2.13;;
6475;SDS011;3271;51.910;5.840;2022-08-11T00:45:17;2.55;;;2.20;;
6475;SDS011;3271;51.910;5.840;2022-08-11T00:58:42;2.72;;;2.05;;
6475;SDS011;3271;51.910;5.840;2022-08-11T01:16:37;3.17;;;2.00;;
6475;SDS011;3271;51.910;5.840;2022-08-11T01:27:30;3.25;;;2.10;;
6475;SDS011;3271;51.910;5.840;2022-08-11T01:46:29;3.08;;;2.15;;
6475;SDS011;3271;51.910;5.840;2022-08-11T01:48:59;3.05;;;2.35;;
6475;SDS011;3271;51.910;5.840;2022-08-11T01:54:02;3.78;;;2.40;;
6475;SDS011;3271;51.910;5.840;2022-08-11T01:56:49;3.13;;;1.85;;
6475;SDS011;3271;51.910;5.840;2022-08-11T02:04:30;3.55;;;1.85;;
6475;SDS011;3271;51.910;5.840;2022-08-11T02:09:42;4.70;;;2.50;;
6475;SDS011;3271;51.910;5.840;2022-08-11T02:12:13;3.78;;;2.83;;
6475;SDS011;3271;51.910;5.840;2022-08-11T02:14:48;3.80;;;1.85;;
6475;SDS011;3271;51.910;5.840;2022-08-11T02:17:20;2.25;;;2.03;;
6475;SDS011;3271;51.910;5.840;2022-08-11T02:19:54;4.55;;;2.35;;
6475;SDS011;3271;51.910;5.840;2022-08-11T02:22:54;2.72;;;1.98;;
6475;SDS011;3271;51.910;5.840;2022-08-11T02:25:45;3.63;;;2.15;;
6475;SDS011;3271;51.910;5.840;2022-08-11T02:28:26;3.83;;;2.33;;
6475;SDS011;3271;51.910;5.840;2022-08-11T02:31:10;3.33;;;2.17;;
6475;SDS011;3271;51.910;5.840;2022-08-11T02:34:23;3.15;;;2.08;;
6475;SDS011;3271;51.910;5.840;2022-08-11T02:37:07;2.42;;;2.22;;
6475;SDS011;3271;51.910;5.840;2022-08-11T02:40:06;3.60;;;2.13;;
6475;SDS011;3271;51.910;5.840;2022-08-11T02:47:45;4.05;;;2.58;;
6475;SDS011;3271;51.910;5.840;2022-08-11T02:50:34;3.65;;;2.72;;
6475;SDS011;3271;51.910;5.840;2022-08-11T02:58:48;3.55;;;3.25;;
6475;SDS011;3271;51.910;5.840;2022-08-11T03:01:49;5.55;;;3.10;;
6475;SDS011;3271;51.910;5.840;2022-08-11T03:07:22;3.47;;;2.78;;
6475;SDS011;3271;51.910;5.840;2022-08-11T03:12:43;5.05;;;2.83;;
6475;SDS011;3271;51.910;5.840;2022-08-11T03:15:30;5.50;;;3.42;;
6475;SDS011;3271;51.910;5.840;2022-08-11T03:20:52;7.30;;;5.93;;
6475;SDS011;3271;51.910;5.840;2022-08-11T03:23:28;5.90;;;4.95;;
6475;SDS011;3271;51.910;5.840;2022-08-11T03:28:44;8.05;;;3.10;;
6475;SDS011;3271;51.910;5.840;2022-08-11T03:31:22;6.25;;;3.58;;
6475;SDS011;3271;51.910;5.840;2022-08-11T03:34:05;3.67;;;3.15;;
6475;SDS011;3271;51.910;5.840;2022-08-11T03:39:11;7.10;;;3.80;;
6475;SDS011;3271;51.910;5.840;2022-08-11T03:41:43;2.90;;;2.70;;
6475;SDS011;3271;51.910;5.840;2022-08-11T03:44:17;4.00;;;3.60;;
6475;SDS011;3271;51.910;5.840;2022-08-11T03:46:55;3.92;;;3.53;;
6475;SDS011;3271;51.910;5.840;2022-08-11T03:49:29;5.15;;;3.55;;
6475;SDS011;3271;51.910;5.840;2022-08-11T03:54:36;5.93;;;3.22;;
6475;SDS011;3271;51.910;5.840;2022-08-11T03:57:20;3.80;;;2.67;;
6475;SDS011;3271;51.910;5.840;2022-08-11T04:02:26;4.10;;;2.90;;
6475;SDS011;3271;51.910;5.840;2022-08-11T04:29:22;3.53;;;3.08;;
6475;SDS011;3271;51.910;5.840;2022-08-11T04:37:09;3.58;;;3.17;;
6475;SDS011;3271;51.910;5.840;2022-08-11T04:42:39;3.20;;;2.90;;
6475;SDS011;3271;51.910;5.840;2022-08-11T04:48:13;5.25;;;3.30;;
6475;SDS011;3271;51.910;5.840;2022-08-11T04:57:21;4.72;;;4.20;;
6475;SDS011;3271;51.910;5.840;2022-08-11T05:00:09;5.22;;;4.25;;
6475;SDS011;3271;51.910;5.840;2022-08-11T05:03:07;5.15;;;4.40;;
6475;SDS011;3271;51.910;5.840;2022-08-11T05:05:53;4.35;;;3.85;;
6475;SDS011;3271;51.910;5.840;2022-08-11T05:08:38;4.30;;;3.35;;
6475;SDS011;3271;51.910;5.840;2022-08-11T05:11:10;4.20;;;3.50;;
6475;SDS011;3271;51.910;5.840;2022-08-11T05:13:45;3.75;;;3.05;;
6475;SDS011;3271;51.910;5.840;2022-08-11T05:16:41;3.88;;;3.08;;
6475;SDS011;3271;51.910;5.840;2022-08-11T05:19:31;4.63;;;3.20;;
6475;SDS011;3271;51.910;5.840;2022-08-11T05:22:16;5.55;;;3.25;;
6475;SDS011;3271;51.910;5.840;2022-08-11T05:25:06;4.35;;;3.80;;
6475;SDS011;3271;51.910;5.840;2022-08-11T05:28:07;5.13;;;3.42;;
6475;SDS011;3271;51.910;5.840;2022-08-11T05:30:57;4.80;;;3.38;;
6475;SDS011;3271;51.910;5.840;2022-08-11T05:33:47;4.38;;;3.22;;
6475;SDS011;3271;51.910;5.840;2022-08-11T05:36:36;5.30;;;3.92;;
6475;SDS011;3271;51.910;5.840;2022-08-11T05:39:07;3.80;;;3.47;;
6475;SDS011;3271;51.910;5.840;2022-08-11T05:41:57;3.65;;;3.30;;
6475;SDS011;3271;51.910;5.840;2022-08-11T05:44:46;4.03;;;3.53;;
6475;SDS011;3271;51.910;5.840;2022-08-11T05:47:31;5.38;;;3.60;;
6475;SDS011;3271;51.910;5.840;2022-08-11T05:50:17;4.50;;;3.47;;
6475;SDS011;3271;51.910;5.840;2022-08-11T05:53:03;4.32;;;3.08;;
6475;SDS011;3271;51.910;5.840;2022-08-11T05:55:48;5.68;;;4.20;;
6475;SDS011;3271;51.910;5.840;2022-08-11T05:58:35;4.25;;;3.85;;
6475;SDS011;3271;51.910;5.840;2022-08-11T06:01:02;6.55;;;3.33;;
6475;SDS011;3271;51.910;5.840;2022-08-11T06:03:28;4.13;;;3.40;;
6475;SDS011;3271;51.910;5.840;2022-08-11T06:05:55;3.95;;;3.50;;
6475;SDS011;3271;51.910;5.840;2022-08-11T06:08:28;9.10;;;3.78;;
6475;SDS011;3271;51.910;5.840;2022-08-11T06:10:58;5.57;;;3.42;;
6475;SDS011;3271;51.910;5.840;2022-08-11T06:13:25;3.70;;;3.20;;
6475;SDS011;3271;51.910;5.840;2022-08-11T06:15:52;4.05;;;3.63;;
6475;SDS011;3271;51.910;5.840;2022-08-11T06:18:19;3.95;;;3.60;;
6475;SDS011;3271;51.910;5.840;2022-08-11T06:20:49;5.65;;;3.47;;
6475;SDS011;3271;51.910;5.840;2022-08-11T06:23:16;3.92;;;2.92;;
6475;SDS011;3271;51.910;5.840;2022-08-11T06:25:43;4.00;;;3.53;;
6475;SDS011;3271;51.910;5.840;2022-08-11T06:28:10;3.58;;;3.28;;
6475;SDS011;3271;51.910;5.840;2022-08-11T06:30:37;6.07;;;3.17;;
6475;SDS011;3271;51.910;5.840;2022-08-11T06:33:12;3.95;;;3.35;;
6475;SDS011;3271;51.910;5.840;2022-08-11T06:35:44;4.05;;;3.65;;
6475;SDS011;3271;51.910;5.840;2022-08-11T06:38:13;4.40;;;3.80;;
6475;SDS011;3271;51.910;5.840;2022-08-11T06:40:53;4.32;;;3.53;;
6475;SDS011;3271;51.910;5.840;2022-08-11T06:43:50;3.95;;;3.40;;
6475;SDS011;3271;51.910;5.840;2022-08-11T06:46:21;5.18;;;3.70;;
6475;SDS011;3271;51.910;5.840;2022-08-11T06:48:48;5.63;;;3.95;;
6475;SDS011;3271;51.910;5.840;2022-08-11T06:51:14;5.88;;;3.67;;
6475;SDS011;3271;51.910;5.840;2022-08-11T06:56:10;3.95;;;3.53;;
6475;SDS011;3271;51.910;5.840;2022-08-11T06:58:55;4.68;;;3.78;;
6475;SDS011;3271;51.910;5.840;2022-08-11T07:01:41;4.28;;;3.30;;
6475;SDS011;3271;51.910;5.840;2022-08-11T07:04:12;4.85;;;3.53;;
6475;SDS011;3271;51.910;5.840;2022-08-11T07:06:40;3.78;;;3.45;;
6475;SDS011;3271;51.910;5.840;2022-08-11T07:12:44;4.15;;;3.40;;
6475;SDS011;3271;51.910;5.840;2022-08-11T07:15:32;3.50;;;3.20;;
6475;SDS011;3271;51.910;5.840;2022-08-11T07:18:09;4.57;;;3.45;;
6475;SDS011;3271;51.910;5.840;2022-08-11T07:20:54;4.88;;;3.83;;
6475;SDS011;3271;51.910;5.840;2022-08-11T07:23:48;5.22;;;3.83;;
6475;SDS011;3271;51.910;5.840;2022-08-11T07:26:35;8.30;;;3.70;;
6475;SDS011;3271;51.910;5.840;2022-08-11T07:29:22;4.22;;;3.50;;
6475;SDS011;3271;51.910;5.840;2022-08-11T07:31:51;2.97;;;2.70;;
6475;SDS011;3271;51.910;5.840;2022-08-11T07:36:53;5.05;;;3.25;;
6475;SDS011;3271;51.910;5.840;2022-08-11T07:39:27;4.40;;;3.10;;
6475;SDS011;3271;51.910;5.840;2022-08-11T07:41:54;4.28;;;3.33;;
6475;SDS011;3271;51.910;5.840;2022-08-11T07:44:21;3.72;;;3.17;;
6475;SDS011;3271;51.910;5.840;2022-08-11T07:46:51;3.63;;;3.33;;
6475;SDS011;3271;51.910;5.840;2022-08-11T07:49:37;3.92;;;2.90;;
6475;SDS011;3271;51.910;5.840;2022-08-11T07:52:22;8.48;;;3.10;;
6475;SDS011;3271;51.910;5.840;2022-08-11T07:57:30;3.72;;;2.80;;
6475;SDS011;3271;51.910;5.840;2022-08-11T08:00:15;4.75;;;3.10;;
6475;SDS011;3271;51.910;5.840;2022-08-11T08:03:00;4.05;;;2.97;;
6475;SDS011;3271;51.910;5.840;2022-08-11T08:05:46;4.68;;;2.70;;
6475;SDS011;3271;51.910;5.840;2022-08-11T08:08:31;3.05;;;2.60;;
6475;SDS011;3271;51.910;5.840;2022-08-11T08:11:18;3.20;;;2.90;;
6475;SDS011;3271;51.910;5.840;2022-08-11T08:14:04;3.10;;;2.83;;
6475;SDS011;3271;51.910;5.840;2022-08-11T08:16:49;5.57;;;2.92;;
6475;SDS011;3271;51.910;5.840;2022-08-11T08:19:34;3.95;;;2.78;;
6475;SDS011;3271;51.910;5.840;2022-08-11T08:22:00;4.65;;;3.30;;
6475;SDS011;3271;51.910;5.840;2022-08-11T08:24:27;4.45;;;3.00;;
6475;SDS011;3271;51.910;5.840;2022-08-11T08:26:53;9.02;;;3.97;;
6475;SDS011;3271;51.910;5.840;2022-08-11T08:29:23;3.55;;;2.70;;
6475;SDS011;3271;51.910;5.840;2022-08-11T08:32:08;4.28;;;3.28;;
6475;SDS011;3271;51.910;5.840;2022-08-11T08:34:35;4.25;;;2.83;;
6475;SDS011;3271;51.910;5.840;2022-08-11T08:37:02;4.72;;;3.00;;
6475;SDS011;3271;51.910;5.840;2022-08-11T08:39:29;4.43;;;2.63;;
6475;SDS011;3271;51.910;5.840;2022-08-11T08:41:58;5.55;;;3.38;;
6475;SDS011;3271;51.910;5.840;2022-08-11T08:44:25;4.15;;;2.83;;
6475;SDS011;3271;51.910;5.840;2022-08-11T08:46:55;6.13;;;2.67;;
6475;SDS011;3271;51.910;5.840;2022-08-11T08:49:24;3.30;;;2.95;;
6475;SDS011;3271;51.910;5.840;2022-08-11T08:51:52;3.53;;;2.83;;
6475;SDS011;3271;51.910;5.840;2022-08-11T08:54:23;6.18;;;3.03;;
6475;SDS011;3271;51.910;5.840;2022-08-11T08:56:51;4.45;;;2.60;;
6475;SDS011;3271;51.910;5.840;2022-08-11T08:59:19;3.20;;;2.60;;
6475;SDS011;3271;51.910;5.840;2022-08-11T09:01:47;3.47;;;2.92;;
6475;SDS011;3271;51.910;5.840;2022-08-11T09:04:15;3.47;;;3.10;;
6475;SDS011;3271;51.910;5.840;2022-08-11T09:06:44;3.42;;;2.55;;
6475;SDS011;3271;51.910;5.840;2022-08-11T09:09:10;3.92;;;2.70;;
6475;SDS011;3271;51.910;5.840;2022-08-11T09:11:36;4.85;;;2.88;;
6475;SDS011;3271;51.910;5.840;2022-08-11T09:14:17;4.18;;;3.67;;
6475;SDS011;3271;51.910;5.840;2022-08-11T09:16:43;5.43;;;2.50;;
6475;SDS011;3271;51.910;5.840;2022-08-11T09:19:09;3.55;;;2.55;;
6475;SDS011;3271;51.910;5.840;2022-08-11T09:21:41;3.55;;;2.58;;
6475;SDS011;3271;51.910;5.840;2022-08-11T09:24:08;6.95;;;3.22;;
6475;SDS011;3271;51.910;5.840;2022-08-11T09:26:53;4.65;;;2.50;;
6475;SDS011;3271;51.910;5.840;2022-08-11T09:29:28;2.63;;;2.42;;
6475;SDS011;3271;51.910;5.840;2022-08-11T09:31:54;4.30;;;3.10;;
6475;SDS011;3271;51.910;5.840;2022-08-11T09:34:21;4.10;;;3.05;;
6475;SDS011;3271;51.910;5.840;2022-08-11T09:36:47;5.88;;;2.72;;
6475;SDS011;3271;51.910;5.840;2022-08-11T09:39:32;4.65;;;3.15;;
6475;SDS011;3271;51.910;5.840;2022-08-11T09:42:19;4.65;;;3.00;;
6475;SDS011;3271;51.910;5.840;2022-08-11T09:44:47;3.58;;;2.95;;
6475;SDS011;3271;51.910;5.840;2022-08-11T09:47:23;2.63;;;2.38;;
6475;SDS011;3271;51.910;5.840;2022-08-11T09:49:50;3.00;;;2.45;;
6475;SDS011;3271;51.910;5.840;2022-08-11T09:52:17;5.25;;;2.65;;
6475;SDS011;3271;51.910;5.840;2022-08-11T09:54:44;3.78;;;2.92;;
6475;SDS011;3271;51.910;5.840;2022-08-11T09:57:11;4.78;;;2.45;;
6475;SDS011;3271;51.910;5.840;2022-08-11T09:59:56;4.25;;;2.92;;
6475;SDS011;3271;51.910;5.840;2022-08-11T10:02:24;3.45;;;3.03;;
6475;SDS011;3271;51.910;5.840;2022-08-11T10:04:51;4.68;;;2.78;;
6475;SDS011;3271;51.910;5.840;2022-08-11T10:07:38;4.75;;;2.80;;
6475;SDS011;3271;51.910;5.840;2022-08-11T10:10:04;4.97;;;3.03;;
6475;SDS011;3271;51.910;5.840;2022-08-11T10:12:31;3.63;;;2.95;;
6475;SDS011;3271;51.910;5.840;2022-08-11T10:15:01;2.78;;;2.47;;
6475;SDS011;3271;51.910;5.840;2022-08-11T10:17:47;3.38;;;3.08;;
6475;SDS011;3271;51.910;5.840;2022-08-11T10:20:34;2.80;;;2.47;;
6475;SDS011;3271;51.910;5.840;2022-08-11T10:23:01;2.50;;;2.30;;
6475;SDS011;3271;51.910;5.840;2022-08-11T10:25:46;3.90;;;2.72;;
6475;SDS011;3271;51.910;5.840;2022-08-11T10:28:31;4.78;;;2.67;;
6475;SDS011;3271;51.910;5.840;2022-08-11T10:30:59;3.20;;;2.90;;
6475;SDS011;3271;51.910;5.840;2022-08-11T10:33:44;4.88;;;3.60;;
6475;SDS011;3271;51.910;5.840;2022-08-11T10:36:24;3.53;;;2.83;;
6475;SDS011;3271;51.910;5.840;2022-08-11T10:38:50;3.90;;;2.53;;
6475;SDS011;3271;51.910;5.840;2022-08-11T10:41:17;3.75;;;2.67;;
6475;SDS011;3271;51.910;5.840;2022-08-11T10:44:02;3.83;;;2.75;;
6475;SDS011;3271;51.910;5.840;2022-08-11T10:46:29;5.63;;;2.63;;
6475;SDS011;3271;51.910;5.840;2022-08-11T10:49:14;4.72;;;2.17;;
6475;SDS011;3271;51.910;5.840;2022-08-11T10:51:40;2.40;;;2.20;;
6475;SDS011;3271;51.910;5.840;2022-08-11T10:54:25;2.45;;;2.25;;
6475;SDS011;3271;51.910;5.840;2022-08-11T10:57:10;5.18;;;2.22;;
6475;SDS011;3271;51.910;5.840;2022-08-11T10:59:57;4.15;;;2.80;;
6475;SDS011;3271;51.910;5.840;2022-08-11T11:02:23;3.45;;;2.60;;
6475;SDS011;3271;51.910;5.840;2022-08-11T11:07:21;4.78;;;2.70;;
6475;SDS011;3271;51.910;5.840;2022-08-11T11:09:56;5.00;;;2.85;;
6475;SDS011;3271;51.910;5.840;2022-08-11T11:12:24;5.40;;;2.70;;
6475;SDS011;3271;51.910;5.840;2022-08-11T11:15:10;4.80;;;2.95;;
6475;SDS011;3271;51.910;5.840;2022-08-11T11:17:58;3.33;;;2.58;;
6475;SDS011;3271;51.910;5.840;2022-08-11T11:23:02;2.53;;;2.33;;
6475;SDS011;3271;51.910;5.840;2022-08-11T11:28:52;2.53;;;2.33;;
6475;SDS011;3271;51.910;5.840;2022-08-11T11:32:08;2.92;;;2.50;;
6475;SDS011;3271;51.910;5.840;2022-08-11T11:36:52;4.57;;;2.75;;
6475;SDS011;3271;51.910;5.840;2022-08-11T11:39:20;4.65;;;2.80;;
6475;SDS011;3271;51.910;5.840;2022-08-11T11:41:47;4.97;;;2.63;;
6475;SDS011;3271;51.910;5.840;2022-08-11T11:44:13;3.92;;;2.67;;
6475;SDS011;3271;51.910;5.840;2022-08-11T11:46:39;2.35;;;2.22;;
6475;SDS011;3271;51.910;5.840;2022-08-11T11:49:06;2.80;;;2.30;;
6475;SDS011;3271;51.910;5.840;2022-08-11T11:51:33;3.45;;;2.28;;
6475;SDS011;3271;51.910;5.840;2022-08-11T11:54:01;3.65;;;2.55;;
6475;SDS011;3271;51.910;5.840;2022-08-11T11:56:29;3.97;;;2.60;;
6475;SDS011;3271;51.910;5.840;2022-08-11T11:58:55;2.47;;;1.92;;
6475;SDS011;3271;51.910;5.840;2022-08-11T12:01:40;3.78;;;2.78;;
6475;SDS011;3271;51.910;5.840;2022-08-11T12:04:07;4.22;;;2.40;;
6475;SDS011;3271;51.910;5.840;2022-08-11T12:06:34;2.72;;;2.40;;
6475;SDS011;3271;51.910;5.840;2022-08-11T12:09:01;3.10;;;2.60;;
6475;SDS011;3271;51.910;5.840;2022-08-11T12:11:27;2.78;;;2.58;;
6475;SDS011;3271;51.910;5.840;2022-08-11T12:14:14;3.67;;;2.45;;
6475;SDS011;3271;51.910;5.840;2022-08-11T12:16:42;3.40;;;2.75;;
6475;SDS011;3271;51.910;5.840;2022-08-11T12:19:13;2.63;;;2.42;;
6475;SDS011;3271;51.910;5.840;2022-08-11T12:21:40;4.43;;;2.80;;
6475;SDS011;3271;51.910;5.840;2022-08-11T12:24:26;5.68;;;2.45;;
6475;SDS011;3271;51.910;5.840;2022-08-11T12:27:11;3.22;;;2.22;;
6475;SDS011;3271;51.910;5.840;2022-08-11T12:29:50;2.58;;;2.38;;
6475;SDS011;3271;51.910;5.840;2022-08-11T12:32:18;3.72;;;2.33;;
6475;SDS011;3271;51.910;5.840;2022-08-11T12:34:45;3.47;;;2.58;;
6475;SDS011;3271;51.910;5.840;2022-08-11T12:37:11;2.53;;;2.33;;
6475;SDS011;3271;51.910;5.840;2022-08-11T12:39:38;6.43;;;2.28;;
6475;SDS011;3271;51.910;5.840;2022-08-11T12:42:25;2.85;;;2.20;;
6475;SDS011;3271;51.910;5.840;2022-08-11T12:45:11;2.70;;;2.30;;
6475;SDS011;3271;51.910;5.840;2022-08-11T12:48:06;3.72;;;3.42;;
6475;SDS011;3271;51.910;5.840;2022-08-11T12:50:55;4.15;;;2.80;;
6475;SDS011;3271;51.910;5.840;2022-08-11T12:53:51;4.38;;;2.42;;
6475;SDS011;3271;51.910;5.840;2022-08-11T12:56:17;2.38;;;2.17;;
6475;SDS011;3271;51.910;5.840;2022-08-11T12:59:02;2.50;;;2.30;;
6475;SDS011;3271;51.910;5.840;2022-08-11T13:01:48;2.65;;;2.33;;
6475;SDS011;3271;51.910;5.840;2022-08-11T13:04:32;3.95;;;2.78;;
6475;SDS011;3271;51.910;5.840;2022-08-11T13:07:17;4.00;;;2.90;;
6475;SDS011;3271;51.910;5.840;2022-08-11T13:09:43;4.28;;;2.90;;
6475;SDS011;3271;51.910;5.840;2022-08-11T13:12:10;5.03;;;2.40;;
6475;SDS011;3271;51.910;5.840;2022-08-11T13:14:55;2.58;;;2.17;;
6475;SDS011;3271;51.910;5.840;2022-08-11T13:17:22;3.90;;;2.25;;
6475;SDS011;3271;51.910;5.840;2022-08-11T13:19:50;3.90;;;2.58;;
6475;SDS011;3271;51.910;5.840;2022-08-11T13:22:17;4.03;;;2.38;;
6475;SDS011;3271;51.910;5.840;2022-08-11T13:24:43;3.88;;;2.20;;
6475;SDS011;3271;51.910;5.840;2022-08-11T13:27:10;2.30;;;2.13;;
6475;SDS011;3271;51.910;5.840;2022-08-11T13:29:36;2.53;;;2.33;;
6475;SDS011;3271;51.910;5.840;2022-08-11T13:32:04;5.35;;;2.58;;
6475;SDS011;3271;51.910;5.840;2022-08-11T13:34:30;4.57;;;2.30;;
6475;SDS011;3271;51.910;5.840;2022-08-11T13:36:58;2.38;;;2.17;;
6475;SDS011;3271;51.910;5.840;2022-08-11T13:39:26;2.78;;;2.50;;
6475;SDS011;3271;51.910;5.840;2022-08-11T13:41:56;2.80;;;2.13;;
6475;SDS011;3271;51.910;5.840;2022-08-11T13:44:23;2.30;;;2.10;;
6475;SDS011;3271;51.910;5.840;2022-08-11T13:46:55;3.58;;;2.22;;
6475;SDS011;3271;51.910;5.840;2022-08-11T13:49:22;3.28;;;2.65;;
6475;SDS011;3271;51.910;5.840;2022-08-11T13:51:48;2.28;;;2.08;;
6475;SDS011;3271;51.910;5.840;2022-08-11T13:54:15;3.25;;;2.20;;
6475;SDS011;3271;51.910;5.840;2022-08-11T13:56:42;3.25;;;2.38;;
6475;SDS011;3271;51.910;5.840;2022-08-11T13:59:10;2.80;;;2.30;;
6475;SDS011;3271;51.910;5.840;2022-08-11T14:01:39;2.40;;;2.20;;
6475;SDS011;3271;51.910;5.840;2022-08-11T14:04:12;3.35;;;2.30;;
6475;SDS011;3271;51.910;5.840;2022-08-11T14:06:40;3.05;;;2.42;;
6475;SDS011;3271;51.910;5.840;2022-08-11T14:09:07;4.65;;;2.00;;
6475;SDS011;3271;51.910;5.840;2022-08-11T14:11:34;3.20;;;2.17;;
6475;SDS011;3271;51.910;5.840;2022-08-11T14:14:24;2.60;;;2.30;;
6475;SDS011;3271;51.910;5.840;2022-08-11T14:16:51;6.25;;;2.50;;
6475;SDS011;3271;51.910;5.840;2022-08-11T14:19:18;2.50;;;2.30;;
6475;SDS011;3271;51.910;5.840;2022-08-11T14:21:45;3.53;;;2.15;;
6475;SDS011;3271;51.910;5.840;2022-08-11T14:24:30;3.65;;;2.55;;
6475;SDS011;3271;51.910;5.840;2022-08-11T14:26:57;2.72;;;2.00;;
6475;SDS011;3271;51.910;5.840;2022-08-11T14:29:24;2.53;;;2.25;;
6475;SDS011;3271;51.910;5.840;2022-08-11T14:31:52;3.45;;;2.55;;
6475;SDS011;3271;51.910;5.840;2022-08-11T14:34:19;4.95;;;2.42;;
6475;SDS011;3271;51.910;5.840;2022-08-11T14:36:47;5.78;;;2.40;;
6475;SDS011;3271;51.910;5.840;2022-08-11T14:39:16;4.53;;;2.30;;
6475;SDS011;3271;51.910;5.840;2022-08-11T14:41:44;3.15;;;2.70;;
6475;SDS011;3271;51.910;5.840;2022-08-11T14:44:30;4.55;;;2.83;;
6475;SDS011;3271;51.910;5.840;2022-08-11T14:47:16;2.30;;;2.10;;
6475;SDS011;3271;51.910;5.840;2022-08-11T14:49:42;4.32;;;2.42;;
6475;SDS011;3271;51.910;5.840;2022-08-11T14:52:10;2.60;;;2.40;;
6475;SDS011;3271;51.910;5.840;2022-08-11T14:54:41;4.93;;;2.20;;
6475;SDS011;3271;51.910;5.840;2022-08-11T14:57:27;3.20;;;2.47;;
6475;SDS011;3271;51.910;5.840;2022-08-11T14:59:54;2.95;;;2.30;;
6475;SDS011;3271;51.910;5.840;2022-08-11T15:02:20;3.50;;;2.20;;
6475;SDS011;3271;51.910;5.840;2022-08-11T15:05:05;3.10;;;2.10;;
6475;SDS011;3271;51.910;5.840;2022-08-11T15:07:31;2.83;;;2.35;;
6475;SDS011;3271;51.910;5.840;2022-08-11T15:09:58;3.40;;;2.10;;
6475;SDS011;3271;51.910;5.840;2022-08-11T15:12:24;4.32;;;2.03;;
6475;SDS011;3271;51.910;5.840;2022-08-11T15:14:51;2.97;;;1.70;;
6475;SDS011;3271;51.910;5.840;2022-08-11T15:17:35;3.08;;;2.17;;
6475;SDS011;3271;51.910;5.840;2022-08-11T15:20:03;3.58;;;2.10;;
6475;SDS011;3271;51.910;5.840;2022-08-11T15:22:49;5.45;;;2.17;;
6475;SDS011;3271;51.910;5.840;2022-08-11T15:25:34;2.58;;;2.35;;
6475;SDS011;3271;51.910;5.840;2022-08-11T15:28:01;3.10;;;2.15;;
6475;SDS011;3271;51.910;5.840;2022-08-11T15:30:46;7.63;;;4.88;;
6475;SDS011;3271;51.910;5.840;2022-08-11T15:33:34;2.97;;;2.67;;
6475;SDS011;3271;51.910;5.840;2022-08-11T15:36:19;4.13;;;2.20;;
6475;SDS011;3271;51.910;5.840;2022-08-11T15:39:08;4.07;;;2.60;;
6475;SDS011;3271;51.910;5.840;2022-08-11T15:41:40;4.03;;;3.63;;
6475;SDS011;3271;51.910;5.840;2022-08-11T15:44:28;6.43;;;3.08;;
6475;SDS011;3271;51.910;5.840;2022-08-11T15:47:14;2.17;;;2.08;;
6475;SDS011;3271;51.910;5.840;2022-08-11T15:49:40;2.53;;;2.30;;
6475;SDS011;3271;51.910;5.840;2022-08-11T15:52:10;2.67;;;2.42;;
6475;SDS011;3271;51.910;5.840;2022-08-11T15:54:39;2.30;;;1.92;;
6475;SDS011;3271;51.910;5.840;2022-08-11T15:57:06;2.80;;;2.05;;
6475;SDS011;3271;51.910;5.840;2022-08-11T15:59:34;2.90;;;1.67;;
6475;SDS011;3271;51.910;5.840;2022-08-11T16:02:20;3.55;;;2.70;;
6475;SDS011;3271;51.910;5.840;2022-08-11T16:05:07;5.50;;;3.50;;
6475;SDS011;3271;51.910;5.840;2022-08-11T16:07:34;2.40;;;2.20;;
6475;SDS011;3271;51.910;5.840;2022-08-11T16:10:03;2.83;;;2.13;;
6475;SDS011;3271;51.910;5.840;2022-08-11T16:12:34;2.85;;;2.00;;
6475;SDS011;3271;51.910;5.840;2022-08-11T16:15:03;3.92;;;1.85;;
6475;SDS011;3271;51.910;5.840;2022-08-11T16:17:49;1.95;;;1.77;;
6475;SDS011;3271;51.910;5.840;2022-08-11T16:20:18;4.53;;;2.00;;
6475;SDS011;3271;51.910;5.840;2022-08-11T16:22:45;2.58;;;1.88;;
6475;SDS011;3271;51.910;5.840;2022-08-11T16:25:15;2.38;;;2.13;;
6475;SDS011;3271;51.910;5.840;2022-08-11T16:27:46;1.95;;;1.85;;
6475;SDS011;3271;51.910;5.840;2022-08-11T16:30:12;4.15;;;2.25;;
6475;SDS011;3271;51.910;5.840;2022-08-11T16:32:42;5.20;;;2.05;;
6475;SDS011;3271;51.910;5.840;2022-08-11T16:35:14;2.67;;;1.98;;
6475;SDS011;3271;51.910;5.840;2022-08-11T16:37:59;2.17;;;1.90;;
6475;SDS011;3271;51.910;5.840;2022-08-11T16:40:45;3.17;;;2.05;;
6475;SDS011;3271;51.910;5.840;2022-08-11T16:43:14;2.53;;;2.00;;
6475;SDS011;3271;51.910;5.840;2022-08-11T16:46:00;2.67;;;2.47;;
6475;SDS011;3271;51.910;5.840;2022-08-11T16:48:47;2.63;;;2.15;;
6475;SDS011;3271;51.910;5.840;2022-08-11T16:51:14;3.13;;;2.10;;
6475;SDS011;3271;51.910;5.840;2022-08-11T16:53:43;2.65;;;2.13;;
6475;SDS011;3271;51.910;5.840;2022-08-11T16:56:10;4.03;;;2.20;;
6475;SDS011;3271;51.910;5.840;2022-08-11T16:58:41;3.03;;;2.03;;
6475;SDS011;3271;51.910;5.840;2022-08-11T17:01:26;1.95;;;1.75;;
6475;SDS011;3271;51.910;5.840;2022-08-11T17:06:52;3.38;;;2.10;;
6475;SDS011;3271;51.910;5.840;2022-08-11T17:09:37;3.67;;;2.00;;
6475;SDS011;3271;51.910;5.840;2022-08-11T17:12:24;2.25;;;1.80;;
6475;SDS011;3271;51.910;5.840;2022-08-11T17:15:12;1.80;;;1.70;;
6475;SDS011;3271;51.910;5.840;2022-08-11T17:17:58;3.63;;;2.00;;
6475;SDS011;3271;51.910;5.840;2022-08-11T17:20:26;5.68;;;1.92;;
6475;SDS011;3271;51.910;5.840;2022-08-11T17:22:52;2.35;;;1.90;;
6475;SDS011;3271;51.910;5.840;2022-08-11T17:25:38;5.80;;;3.47;;
6475;SDS011;3271;51.910;5.840;2022-08-11T17:28:04;2.70;;;2.10;;
6475;SDS011;3271;51.910;5.840;2022-08-11T17:30:31;3.30;;;2.60;;
6475;SDS011;3271;51.910;5.840;2022-08-11T17:33:16;3.38;;;3.08;;
6475;SDS011;3271;51.910;5.840;2022-08-11T17:36:02;4.05;;;2.30;;
6475;SDS011;3271;51.910;5.840;2022-08-11T17:38:28;3.40;;;3.10;;
6475;SDS011;3271;51.910;5.840;2022-08-11T17:40:56;5.30;;;2.80;;
6475;SDS011;3271;51.910;5.840;2022-08-11T17:43:41;3.67;;;2.15;;
6475;SDS011;3271;51.910;5.840;2022-08-11T17:46:26;2.30;;;1.85;;
6475;SDS011;3271;51.910;5.840;2022-08-11T17:49:11;2.03;;;1.83;;
6475;SDS011;3271;51.910;5.840;2022-08-11T17:51:38;2.10;;;1.90;;
6475;SDS011;3271;51.910;5.840;2022-08-11T17:54:23;2.08;;;1.80;;
6475;SDS011;3271;51.910;5.840;2022-08-11T17:57:09;2.70;;;1.92;;
6475;SDS011;3271;51.910;5.840;2022-08-11T17:59:54;1.50;;;1.40;;
6475;SDS011;3271;51.910;5.840;2022-08-11T18:02:27;2.10;;;1.80;;
6475;SDS011;3271;51.910;5.840;2022-08-11T18:05:12;2.42;;;1.75;;
6475;SDS011;3271;51.910;5.840;2022-08-11T18:07:40;4.28;;;1.75;;
6475;SDS011;3271;51.910;5.840;2022-08-11T18:10:25;2.10;;;1.98;;
6475;SDS011;3271;51.910;5.840;2022-08-11T18:13:11;2.63;;;1.60;;
6475;SDS011;3271;51.910;5.840;2022-08-11T18:15:55;2.40;;;1.95;;
6475;SDS011;3271;51.910;5.840;2022-08-11T18:18:40;2.53;;;1.73;;
6475;SDS011;3271;51.910;5.840;2022-08-11T18:21:24;3.40;;;2.05;;
6475;SDS011;3271;51.910;5.840;2022-08-11T18:24:11;1.80;;;1.70;;
6475;SDS011;3271;51.910;5.840;2022-08-11T18:27:00;3.25;;;1.60;;
6475;SDS011;3271;51.910;5.840;2022-08-11T18:29:46;2.35;;;1.98;;
6475;SDS011;3271;51.910;5.840;2022-08-11T18:32:31;2.38;;;1.67;;
6475;SDS011;3271;51.910;5.840;2022-08-11T18:35:17;2.13;;;1.92;;
6475;SDS011;3271;51.910;5.840;2022-08-11T18:38:03;2.75;;;1.50;;
6475;SDS011;3271;51.910;5.840;2022-08-11T18:40:49;3.03;;;1.75;;
6475;SDS011;3271;51.910;5.840;2022-08-11T18:43:35;2.13;;;1.67;;